createdAt,value
2022-10-11T00:01:16.000Z,102541.56
2022-10-11T00:03:42.372Z,102544.25
2022-10-11T00:06:09.338Z,102543.34
2022-10-11T00:08:35.938Z,102546.88
2022-10-11T00:11:06.571Z,102546.03
2022-10-11T00:13:33.286Z,102546.88
2022-10-11T00:15:59.925Z,102539.13
2022-10-11T00:18:26.888Z,102542.56
2022-10-11T00:21:08.733Z,102540.03
2022-10-11T00:23:35.287Z,102542.66
2022-10-11T00:26:04.967Z,102548.81
2022-10-11T00:28:31.955Z,102545.25
2022-10-11T00:30:58.430Z,102555.78
2022-10-11T00:33:25.144Z,102549.75
2022-10-11T00:35:51.591Z,102554.97
2022-10-11T00:38:18.175Z,102551.50
2022-10-11T00:40:45.359Z,102565.41
2022-10-11T00:43:18.339Z,102565.50
2022-10-11T00:46:05.629Z,102562.88
2022-10-11T00:48:45.976Z,102568.19
2022-10-11T00:51:20.052Z,102573.41
2022-10-11T00:53:49.538Z,102570.88
2022-10-11T00:56:25.150Z,102572.56
2022-10-11T00:58:53.006Z,102578.72
2022-10-11T01:01:19.556Z,102579.56
2022-10-11T01:03:46.309Z,102577.84
2022-10-11T01:06:12.708Z,102584.03
2022-10-11T01:08:39.320Z,102583.06
2022-10-11T01:11:06.276Z,102590.06
2022-10-11T01:13:48.105Z,102584.84
2022-10-11T01:16:53.910Z,102591.06
2022-10-11T01:19:49.540Z,102588.38
2022-10-11T01:22:39.964Z,102587.53
2022-10-11T01:25:34.363Z,102594.63
2022-10-11T01:28:42.135Z,102586.78
2022-10-11T01:31:33.848Z,102599.00
2022-10-11T01:34:08.176Z,102592.09
2022-10-11T01:36:42.513Z,102596.53
2022-10-11T01:39:16.348Z,102598.22
2022-10-11T01:41:48.013Z,102603.53
2022-10-11T01:44:15.440Z,102600.06
2022-10-11T01:46:42.437Z,102600.94
2022-10-11T01:49:09.223Z,102603.53
2022-10-11T01:51:52.664Z,102600.06
2022-10-11T01:55:08.175Z,102600.13
2022-10-11T01:57:35.959Z,102597.53
2022-10-11T02:00:22.700Z,102611.47
2022-10-11T02:03:19.375Z,102602.75
2022-10-11T02:06:04.232Z,102608.91
2022-10-11T02:08:48.392Z,102609.84
2022-10-11T02:11:32.931Z,102613.28
2022-10-11T02:14:11.642Z,102610.75
2022-10-11T02:16:44.369Z,102609.09
2022-10-11T02:19:14.951Z,102598.63
2022-10-11T02:21:44.556Z,102612.59
2022-10-11T02:24:22.150Z,102596.94
2022-10-11T02:26:54.051Z,102607.47
2022-10-11T02:29:24.434Z,102610.91
2022-10-11T02:31:52.407Z,102610.06
2022-10-11T02:34:24.583Z,102610.97
2022-10-11T02:37:02.873Z,102609.22
2022-10-11T02:39:36.856Z,102613.59
2022-10-11T02:42:07.288Z,102611.81
2022-10-11T02:44:40.909Z,102619.72
2022-10-11T02:47:08.674Z,102619.72
2022-10-11T02:49:35.730Z,102615.38
2022-10-11T02:52:04.783Z,102618.97
2022-10-11T02:54:31.255Z,102620.69
2022-10-11T02:56:57.681Z,102618.06
2022-10-11T02:59:24.081Z,102629.41
2022-10-11T03:01:50.502Z,102620.84
2022-10-11T03:04:16.947Z,102628.59
2022-10-11T03:06:43.284Z,102631.28
2022-10-11T03:09:09.596Z,102625.25
2022-10-11T03:11:36.041Z,102625.19
2022-10-11T03:14:02.498Z,102632.19
2022-10-11T03:16:28.806Z,102627.88
2022-10-11T03:18:58.180Z,102633.09
2022-10-11T03:21:25.155Z,102633.97
2022-10-11T03:23:51.476Z,102634.03
2022-10-11T03:26:17.808Z,102630.56
2022-10-11T03:28:44.286Z,102621.03
2022-10-11T03:31:10.922Z,102625.41
2022-10-11T03:33:37.275Z,102634.09
2022-10-11T03:36:04.241Z,102638.56
2022-10-11T03:38:30.875Z,102630.72
2022-10-11T03:40:57.170Z,102633.34
2022-10-11T03:43:23.486Z,102635.94
2022-10-11T03:45:49.819Z,102636.03
2022-10-11T03:48:16.130Z,102642.94
2022-10-11T03:50:42.471Z,102646.47
2022-10-11T03:53:09.299Z,102649.06
2022-10-11T03:55:39.694Z,102657.00
2022-10-11T03:58:06.212Z,102658.69
2022-10-11T04:00:33.666Z,102650.94
2022-10-11T04:03:00.190Z,102650.94
2022-10-11T04:05:26.516Z,102662.22
2022-10-11T04:07:52.862Z,102659.66
2022-10-11T04:10:19.407Z,102662.28
2022-10-11T04:12:46.162Z,102657.97
2022-10-11T04:15:13.324Z,102660.59
2022-10-11T04:17:40.710Z,102662.34
2022-10-11T04:20:07.911Z,102658.88
2022-10-11T04:22:34.327Z,102670.19
2022-10-11T04:25:00.676Z,102669.41
2022-10-11T04:27:28.454Z,102672.88
2022-10-11T04:29:55.193Z,102672.97
2022-10-11T04:32:21.638Z,102668.66
2022-10-11T04:34:47.955Z,102673.78
2022-10-11T04:37:14.257Z,102674.69
2022-10-11T04:39:40.583Z,102673.88
2022-10-11T04:42:06.885Z,102676.56
2022-10-11T04:44:33.203Z,102680.94
2022-10-11T04:46:59.697Z,102680.16
2022-10-11T04:49:26.082Z,102690.50
2022-10-11T04:51:52.426Z,102688.84
2022-10-11T04:54:18.740Z,102691.47
2022-10-11T04:56:45.242Z,102687.16
2022-10-11T04:59:11.703Z,102687.16
2022-10-11T05:01:38.092Z,102690.66
2022-10-11T05:04:04.563Z,102694.09
2022-10-11T05:06:31.114Z,102695.88
2022-10-11T05:08:57.461Z,102693.28
2022-10-11T05:11:23.879Z,102697.75
2022-10-11T05:13:50.250Z,102691.66
2022-10-11T05:16:17.100Z,102694.25
2022-10-11T05:18:43.826Z,102703.88
2022-10-11T05:21:17.822Z,102695.19
2022-10-11T05:23:45.106Z,102697.81
2022-10-11T05:26:11.489Z,102703.09
2022-10-11T05:28:37.869Z,102710.88
2022-10-11T05:31:04.580Z,102703.09
2022-10-11T05:33:31.379Z,102711.78
2022-10-11T05:35:57.718Z,102715.28
2022-10-11T05:38:24.036Z,102714.47
2022-10-11T05:40:50.521Z,102713.63
2022-10-11T05:43:16.870Z,102711.91
2022-10-11T05:45:44.069Z,102711.06
2022-10-11T05:48:11.080Z,102717.22
2022-10-11T05:50:38.455Z,102718.94
2022-10-11T05:53:06.093Z,102722.44
2022-10-11T05:55:40.086Z,102712.06
2022-10-11T05:58:07.768Z,102731.09
2022-10-11T06:00:37.941Z,102720.72
2022-10-11T06:03:05.918Z,102729.41
2022-10-11T06:05:34.433Z,102735.47
2022-10-11T06:08:01.008Z,102733.72
2022-10-11T06:10:27.499Z,102734.63
2022-10-11T06:12:53.929Z,102735.41
2022-10-11T06:15:20.593Z,102727.56
2022-10-11T06:17:47.432Z,102733.63
2022-10-11T06:20:14.611Z,102741.47
2022-10-11T06:22:40.947Z,102745.84
2022-10-11T06:25:07.712Z,102745.84
2022-10-11T06:27:34.148Z,102748.38
2022-10-11T06:30:00.857Z,102746.53
2022-10-11T06:32:27.368Z,102753.47
2022-10-11T06:34:53.666Z,102755.09
2022-10-11T06:37:20.114Z,102762.84
2022-10-11T06:39:46.449Z,102757.56
2022-10-11T06:42:13.172Z,102755.78
2022-10-11T06:44:39.471Z,102757.47
2022-10-11T06:47:06.311Z,102767.00
2022-10-11T06:49:32.684Z,102771.38
2022-10-11T06:51:59.038Z,102773.97
2022-10-11T06:54:25.579Z,102768.69
2022-10-11T06:56:51.932Z,102762.56
2022-10-11T06:59:18.338Z,102772.91
2022-10-11T07:01:44.668Z,102773.75
2022-10-11T07:04:11.020Z,102779.84
2022-10-11T07:06:40.198Z,102781.56
2022-10-11T07:09:07.435Z,102780.59
2022-10-11T07:11:34.490Z,102784.00
2022-10-11T07:14:07.607Z,102786.69
2022-10-11T07:16:37.522Z,102790.16
2022-10-11T07:19:05.479Z,102784.84
2022-10-11T07:21:34.009Z,102789.16
2022-10-11T07:24:01.746Z,102783.94
2022-10-11T07:26:33.845Z,102792.59
2022-10-11T07:29:04.450Z,102801.28
2022-10-11T07:31:31.012Z,102804.75
2022-10-11T07:33:57.550Z,102804.69
2022-10-11T07:36:24.299Z,102798.59
2022-10-11T07:38:51.265Z,102801.16
2022-10-11T07:41:18.259Z,102802.00
2022-10-11T07:43:46.913Z,102797.53
2022-10-11T07:46:13.848Z,102807.06
2022-10-11T07:48:40.154Z,102800.94
2022-10-11T07:51:10.047Z,102808.78
2022-10-11T07:53:44.431Z,102815.66
2022-10-11T07:56:12.875Z,102812.16
2022-10-11T07:58:40.491Z,102819.91
2022-10-11T08:01:07.881Z,102819.97
2022-10-11T08:03:34.871Z,102821.63
2022-10-11T08:06:03.831Z,102818.13
2022-10-11T08:08:31.181Z,102823.31
2022-10-11T08:10:59.045Z,102825.94
2022-10-11T08:13:25.935Z,102829.38
2022-10-11T08:15:52.939Z,102833.63
2022-10-11T08:18:19.458Z,102837.06
2022-10-11T08:20:46.325Z,102838.69
2022-10-11T08:23:13.177Z,102836.06
2022-10-11T08:25:45.279Z,102843.03
2022-10-11T08:28:17.662Z,102839.59
2022-10-11T08:30:52.215Z,102839.59
2022-10-11T08:33:20.384Z,102840.38
2022-10-11T08:35:46.911Z,102836.84
2022-10-11T08:38:13.975Z,102846.38
2022-10-11T08:40:53.404Z,102846.38
2022-10-11T08:43:31.519Z,102849.91
2022-10-11T08:46:01.254Z,102849.06
2022-10-11T08:48:35.313Z,102850.81
2022-10-11T08:51:09.022Z,102858.72
2022-10-11T08:54:06.428Z,102857.81
2022-10-11T08:56:38.633Z,102858.59
2022-10-11T08:59:10.829Z,102852.44
2022-10-11T09:01:41.957Z,102858.53
2022-10-11T09:04:17.053Z,102859.38
2022-10-11T09:07:10.966Z,102857.50
2022-10-11T09:10:03.981Z,102863.59
2022-10-11T09:12:48.108Z,102856.59
2022-10-11T09:15:32.583Z,102854.00
2022-10-11T09:18:10.002Z,102857.44
2022-10-11T09:20:53.010Z,102863.53
2022-10-11T09:23:38.490Z,102859.97
2022-10-11T09:26:12.111Z,102864.28
2022-10-11T09:29:01.776Z,102869.53
2022-10-11T09:31:29.611Z,102861.69
2022-10-11T09:33:58.907Z,102866.00
2022-10-11T09:36:39.348Z,102870.25
2022-10-11T09:39:31.516Z,102859.00
2022-10-11T09:42:03.341Z,102869.44
2022-10-11T09:44:45.411Z,102872.06
2022-10-11T09:47:16.276Z,102867.69
2022-10-11T09:49:51.860Z,102873.84
2022-10-11T09:52:21.112Z,102869.53
2022-10-11T09:54:50.650Z,102871.22
2022-10-11T09:57:21.521Z,102864.28
2022-10-11T10:00:05.789Z,102871.22
2022-10-11T10:02:44.925Z,102873.75
2022-10-11T10:05:11.171Z,102865.84
2022-10-11T10:07:40.881Z,102868.47
2022-10-11T10:10:34.345Z,102865.78
2022-10-11T10:13:03.806Z,102868.25
2022-10-11T10:15:36.260Z,102869.09
2022-10-11T10:18:06.462Z,102857.78
2022-10-11T10:20:38.146Z,102864.69
2022-10-11T10:23:18.952Z,102860.28
2022-10-11T10:25:50.945Z,102862.81
2022-10-11T10:28:26.295Z,102864.44
2022-10-11T10:30:58.329Z,102860.06
2022-10-11T10:33:29.606Z,102862.63
2022-10-11T10:36:09.964Z,102863.47
2022-10-11T10:38:42.744Z,102861.63
2022-10-11T10:41:12.657Z,102855.56
2022-10-11T10:43:41.730Z,102854.63
2022-10-11T10:46:26.786Z,102854.56
2022-10-11T10:52:16.850Z,102855.31
2022-10-11T10:55:07.741Z,102861.34
2022-10-11T10:57:52.517Z,102853.34
2022-10-11T11:00:21.495Z,102851.56
2022-10-11T11:03:01.889Z,102845.34
2022-10-11T11:05:51.791Z,102849.63
2022-10-11T11:08:36.515Z,102847.91
2022-10-11T11:11:11.783Z,102844.38
2022-10-11T11:13:58.334Z,102845.19
2022-10-11T11:16:34.495Z,102848.56
2022-10-11T11:19:13.126Z,102835.44
2022-10-11T11:22:02.046Z,102840.50
2022-10-11T11:25:09.975Z,102837.06
2022-10-11T11:27:48.409Z,102830.34
2022-10-11T11:30:22.871Z,102826.00
2022-10-11T11:33:32.188Z,102829.44
2022-10-11T11:36:03.910Z,102823.31
2022-10-11T11:38:46.398Z,102825.91
2022-10-11T11:41:24.199Z,102824.13
2022-10-11T11:43:56.494Z,102823.22
2022-10-11T11:46:28.751Z,102818.81
2022-10-11T11:49:00.506Z,102822.19
2022-10-11T11:51:33.794Z,102821.28
2022-10-11T11:54:10.439Z,102821.38
2022-10-11T11:57:18.111Z,102810.91
2022-10-11T11:59:57.510Z,102824.91
2022-10-11T12:02:37.899Z,102812.63
2022-10-11T12:05:07.323Z,102813.44
2022-10-11T12:07:48.619Z,102809.91
2022-10-11T12:11:00.084Z,102801.28
2022-10-11T12:13:32.409Z,102809.00
2022-10-11T12:16:13.556Z,102808.78
2022-10-11T12:18:58.895Z,102796.38
2022-10-11T12:21:31.159Z,102804.06
2022-10-11T12:24:10.053Z,102800.44
2022-10-11T12:27:03.707Z,102789.84
2022-10-11T12:29:49.313Z,102799.31
2022-10-11T12:32:27.975Z,102785.31
2022-10-11T12:35:31.543Z,102786.81
2022-10-11T12:38:30.921Z,102778.91
2022-10-11T12:41:06.240Z,102779.69
2022-10-11T12:43:36.206Z,102782.13
2022-10-11T12:46:31.011Z,102771.75
2022-10-11T12:48:59.988Z,102771.91
2022-10-11T12:51:41.643Z,102773.69
2022-10-11T12:54:37.248Z,102772.06
2022-10-11T12:57:12.176Z,102781.75
2022-10-11T12:59:44.514Z,102779.22
2022-10-11T13:02:29.099Z,102774.94
2022-10-11T13:05:15.812Z,102767.00
2022-10-11T13:07:42.766Z,102770.44
2022-10-11T13:10:15.412Z,102774.84
2022-10-11T13:12:46.027Z,102773.16
2022-10-11T13:15:18.870Z,102767.09
2022-10-11T13:17:45.387Z,102762.78
2022-10-11T13:20:19.479Z,102756.75
2022-10-11T13:22:49.744Z,102767.22
2022-10-11T13:25:19.784Z,102767.22
2022-10-11T13:27:46.290Z,102760.25
2022-10-11T13:30:24.204Z,102756.84
2022-10-11T13:32:51.841Z,102769.06
2022-10-11T13:35:43.516Z,102763.09
2022-10-11T13:38:20.503Z,102750.00
2022-10-11T13:40:50.882Z,102761.31
2022-10-11T13:43:22.340Z,102761.31
2022-10-11T13:45:48.903Z,102761.31
2022-10-11T13:48:16.645Z,102750.84
2022-10-11T13:50:46.508Z,102751.69
2022-10-11T13:53:12.766Z,102753.38
2022-10-11T13:55:42.047Z,102742.94
2022-10-11T13:58:26.771Z,102746.53
2022-10-11T14:01:02.655Z,102753.53
2022-10-11T14:03:46.338Z,102747.47
2022-10-11T14:06:12.702Z,102746.63
2022-10-11T14:08:41.955Z,102745.78
2022-10-11T14:11:10.634Z,102745.03
2022-10-11T14:13:41.080Z,102746.69
2022-10-11T14:16:29.234Z,102739.72
2022-10-11T14:18:58.304Z,102734.50
2022-10-11T14:21:34.553Z,102735.41
2022-10-11T14:24:08.053Z,102733.63
2022-10-11T14:26:37.477Z,102731.97
2022-10-11T14:29:20.680Z,102737.09
2022-10-11T14:31:47.420Z,102731.00
2022-10-11T14:34:20.378Z,102734.50
2022-10-11T14:36:47.796Z,102734.16
2022-10-11T14:39:16.723Z,102735.06
2022-10-11T14:41:43.599Z,102733.28
2022-10-11T14:44:10.459Z,102730.34
2022-10-11T14:46:38.516Z,102730.75
2022-10-11T14:49:17.226Z,102728.94
2022-10-11T14:51:45.420Z,102731.09
2022-10-11T14:54:12.415Z,102725.78
2022-10-11T14:56:39.080Z,102735.09
2022-10-11T14:59:06.481Z,102728.66
2022-10-11T15:01:33.824Z,102731.06
2022-10-11T15:04:00.228Z,102730.47
2022-10-11T15:06:29.968Z,102734.25
2022-10-11T15:08:56.335Z,102730.25
2022-10-11T15:11:23.538Z,102729.28
2022-10-11T15:13:50.636Z,102729.13
2022-10-11T15:16:20.392Z,102729.84
2022-10-11T15:18:50.824Z,102732.72
2022-10-11T15:21:23.227Z,102725.59
2022-10-11T15:23:50.712Z,102727.03
2022-10-11T15:26:20.389Z,102729.84
2022-10-11T15:28:47.511Z,102720.47
2022-10-11T15:31:14.664Z,102718.19
2022-10-11T15:33:41.019Z,102720.19
2022-10-11T15:36:12.457Z,102714.22
2022-10-11T15:38:39.168Z,102714.47
2022-10-11T15:41:05.484Z,102716.28
2022-10-11T15:43:31.871Z,102713.75
2022-10-11T15:45:58.220Z,102714.63
2022-10-11T15:48:26.322Z,102718.06
2022-10-11T15:50:53.702Z,102711.22
2022-10-11T15:53:28.343Z,102714.78
2022-10-11T15:55:57.441Z,102706.16
2022-10-11T15:58:27.363Z,102708.78
2022-10-11T16:00:55.788Z,102708.59
2022-10-11T16:03:25.343Z,102704.16
2022-10-11T16:05:52.936Z,102705.00
2022-10-11T16:08:19.374Z,102704.16
2022-10-11T16:10:45.836Z,102697.22
2022-10-11T16:13:12.443Z,102703.28
2022-10-11T16:15:41.033Z,102701.78
2022-10-11T16:18:10.270Z,102707.06
2022-10-11T16:20:38.704Z,102696.69
2022-10-11T16:23:05.263Z,102698.56
2022-10-11T16:25:31.595Z,102706.41
2022-10-11T16:27:57.946Z,102699.47
2022-10-11T16:30:24.440Z,102700.50
2022-10-11T16:32:50.790Z,102697.09
2022-10-11T16:35:17.995Z,102693.72
2022-10-11T16:37:45.163Z,102699.13
2022-10-11T16:40:17.350Z,102700.94
2022-10-11T16:42:45.574Z,102708.03
2022-10-11T16:45:14.215Z,102707.25
2022-10-11T16:47:41.661Z,102709.13
2022-10-11T16:50:08.713Z,102710.03
2022-10-11T16:52:35.032Z,102720.31
2022-10-11T16:55:01.403Z,102724.66
2022-10-11T16:57:27.771Z,102721.03
2022-10-11T16:59:54.104Z,102718.41
2022-10-11T17:02:31.338Z,102721.03
2022-10-11T17:04:58.727Z,102717.50
2022-10-11T17:07:25.120Z,102716.63
2022-10-11T17:09:51.446Z,102711.41
2022-10-11T17:12:21.295Z,102718.34
2022-10-11T17:14:48.374Z,102720.94
2022-10-11T17:17:15.116Z,102720.13
2022-10-11T17:19:45.109Z,102717.50
2022-10-11T17:22:14.036Z,102714.03
2022-10-11T17:24:40.363Z,102719.25
2022-10-11T17:27:07.131Z,102713.19
2022-10-11T17:29:35.920Z,102721.94
2022-10-11T17:32:02.710Z,102720.19
2022-10-11T17:34:29.037Z,102723.66
2022-10-11T17:36:55.419Z,102727.19
2022-10-11T17:39:23.227Z,102720.19
2022-10-11T17:41:50.207Z,102728.03
2022-10-11T17:44:18.332Z,102718.41
2022-10-11T17:46:45.710Z,102728.03
2022-10-11T17:49:13.278Z,102720.25
2022-10-11T17:51:40.915Z,102722.94
2022-10-11T17:54:12.166Z,102718.59
2022-10-11T17:56:40.028Z,102721.13
2022-10-11T17:59:06.972Z,102721.94
2022-10-11T18:01:34.042Z,102725.44
2022-10-11T18:04:03.125Z,102722.81
2022-10-11T18:06:34.008Z,102717.59
2022-10-11T18:09:01.947Z,102721.13
2022-10-11T18:11:29.251Z,102727.19
2022-10-11T18:13:55.683Z,102722.88
2022-10-11T18:16:26.768Z,102721.13
2022-10-11T18:18:53.100Z,102722.81
2022-10-11T18:21:19.522Z,102721.03
2022-10-11T18:23:46.224Z,102716.63
2022-10-11T18:26:27.932Z,102717.50
2022-10-11T18:28:56.593Z,102722.66
2022-10-11T18:31:26.384Z,102725.34
2022-10-11T18:33:53.694Z,102720.94
2022-10-11T18:36:23.184Z,102722.66
2022-10-11T18:38:54.018Z,102723.50
2022-10-11T18:41:21.829Z,102727.81
2022-10-11T18:43:50.226Z,102719.09
2022-10-11T18:46:16.574Z,102722.41
2022-10-11T18:48:44.655Z,102718.94
2022-10-11T18:51:15.276Z,102711.09
2022-10-11T18:53:42.345Z,102718.03
2022-10-11T18:56:10.629Z,102718.03
2022-10-11T18:58:38.792Z,102715.41
2022-10-11T19:01:10.749Z,102715.31
2022-10-11T19:03:37.345Z,102713.66
2022-10-11T19:06:06.151Z,102710.19
2022-10-11T19:08:33.034Z,102711.88
2022-10-11T19:11:09.491Z,102709.25
2022-10-11T19:13:36.733Z,102717.03
2022-10-11T19:16:08.982Z,102716.19
2022-10-11T19:18:38.340Z,102720.47
2022-10-11T19:21:10.299Z,102707.41
2022-10-11T19:23:42.337Z,102701.25
2022-10-11T19:26:13.979Z,102703.94
2022-10-11T19:28:40.363Z,102703.88
2022-10-11T19:31:10.092Z,102711.72
2022-10-11T19:33:36.705Z,102703.03
2022-10-11T19:36:05.184Z,102702.94
2022-10-11T19:38:34.302Z,102691.63
2022-10-11T19:41:02.315Z,102700.41
2022-10-11T19:43:28.657Z,102702.09
2022-10-11T19:46:02.099Z,102707.22
2022-10-11T19:48:28.955Z,102705.47
2022-10-11T19:51:07.010Z,102708.09
2022-10-11T19:53:33.784Z,102701.16
2022-10-11T19:56:06.048Z,102698.56
2022-10-11T19:58:32.488Z,102697.72
2022-10-11T20:01:11.954Z,102697.72
2022-10-11T20:03:38.775Z,102696.84
2022-10-11T20:06:07.423Z,102698.56
2022-10-11T20:08:35.008Z,102693.31
2022-10-11T20:11:04.715Z,102701.25
2022-10-11T20:13:34.843Z,102698.72
2022-10-11T20:16:07.322Z,102699.56
2022-10-11T20:18:34.083Z,102697.88
2022-10-11T20:21:03.303Z,102694.41
2022-10-11T20:23:30.942Z,102698.81
2022-10-11T20:26:21.828Z,102706.66
2022-10-11T20:28:54.988Z,102701.41
2022-10-11T20:31:31.435Z,102692.78
2022-10-11T20:34:01.354Z,102703.25
2022-10-11T20:36:30.021Z,102710.19
2022-10-11T20:38:58.191Z,102701.56
2022-10-11T20:41:27.539Z,102704.19
2022-10-11T20:43:56.302Z,102702.50
2022-10-11T20:46:25.183Z,102701.50
2022-10-11T20:49:01.293Z,102703.31
2022-10-11T20:51:29.728Z,102703.31
2022-10-11T20:53:56.457Z,102705.94
2022-10-11T20:56:23.255Z,102702.50
2022-10-11T20:58:54.646Z,102702.50
2022-10-11T21:01:24.027Z,102704.34
2022-10-11T21:03:50.406Z,102699.97
2022-10-11T21:06:16.765Z,102698.19
2022-10-11T21:08:43.712Z,102693.03
2022-10-11T21:11:10.650Z,102700.94
2022-10-11T21:13:37.587Z,102703.56
2022-10-11T21:16:06.540Z,102707.13
2022-10-11T21:18:32.856Z,102704.53
2022-10-11T21:21:11.580Z,102707.97
2022-10-11T21:23:38.483Z,102695.81
2022-10-11T21:26:07.355Z,102701.94
2022-10-11T21:28:34.228Z,102701.13
2022-10-11T21:31:05.606Z,102702.91
2022-10-11T21:33:32.779Z,102700.28
2022-10-11T21:35:59.199Z,102704.66
2022-10-11T21:38:25.645Z,102695.13
2022-10-11T21:40:51.961Z,102710.81
2022-10-11T21:43:18.289Z,102702.97
2022-10-11T21:45:44.697Z,102714.34
2022-10-11T21:48:11.034Z,102705.66
2022-10-11T21:50:37.327Z,102700.44
2022-10-11T21:53:03.636Z,102697.81
2022-10-11T21:55:29.934Z,102701.34
2022-10-11T21:57:56.241Z,102708.38
2022-10-11T22:00:22.559Z,102705.75
2022-10-11T22:02:51.199Z,102708.38
2022-10-11T22:05:17.852Z,102708.38
2022-10-11T22:07:45.356Z,102709.19
2022-10-11T22:10:11.651Z,102705.84
2022-10-11T22:12:38.262Z,102704.13
2022-10-11T22:15:05.256Z,102708.44
2022-10-11T22:17:31.600Z,102705.84
2022-10-11T22:19:57.949Z,102706.66
2022-10-11T22:22:24.319Z,102704.13
2022-10-11T22:24:50.612Z,102704.22
2022-10-11T22:27:16.943Z,102699.81
2022-10-11T22:29:43.268Z,102699.75
2022-10-11T22:32:09.612Z,102704.22
2022-10-11T22:34:35.933Z,102696.38
2022-10-11T22:37:02.272Z,102702.44
2022-10-11T22:39:29.277Z,102694.59
2022-10-11T22:41:55.637Z,102697.28
2022-10-11T22:44:22.067Z,102703.34
2022-10-11T22:46:48.390Z,102692.13
2022-10-11T22:49:14.749Z,102692.13
2022-10-11T22:51:41.105Z,102696.44
2022-10-11T22:54:07.434Z,102690.44
2022-10-11T22:56:33.844Z,102694.84
2022-10-11T22:59:00.162Z,102689.59
2022-10-11T23:01:26.520Z,102689.59
2022-10-11T23:03:53.806Z,102692.22
2022-10-11T23:06:20.496Z,102696.63
2022-10-11T23:08:46.828Z,102689.59
2022-10-11T23:11:13.164Z,102694.91
2022-10-11T23:13:39.552Z,102693.13
2022-10-11T23:16:08.105Z,102694.06
2022-10-11T23:18:34.483Z,102695.81
2022-10-11T23:21:01.076Z,102681.94
2022-10-11T23:23:29.834Z,102690.69
2022-10-11T23:26:13.443Z,102681.06
2022-10-11T23:28:40.117Z,102681.94
2022-10-11T23:31:08.782Z,102672.47
2022-10-11T23:33:35.410Z,102669.84
2022-10-11T23:36:01.958Z,102662.94
2022-10-11T23:38:28.509Z,102662.94
2022-10-11T23:40:55.104Z,102669.84
2022-10-11T23:43:21.570Z,102669.03
2022-10-11T23:45:47.975Z,102664.72
2022-10-11T23:48:14.267Z,102670.75
2022-10-11T23:50:40.633Z,102672.53
2022-10-11T23:53:06.944Z,102668.16
2022-10-11T23:55:33.268Z,102673.47
2022-10-11T23:57:59.629Z,102663.94
